Time;durP1;ratioP1;P1;durP2;ratioP2;P2;SDS_P1;SDS_P2;PMS_P1;PMS_P2;Temp;Humidity;BMP_temperature;BMP_pressure;BME280_temperature;BME280_humidity;BME280_pressure;Samples;Min_cycle;Max_cycle;Signal;HPM_P1;HPM_P2
2023/09/06 00:01:49;;;;;;;4.30;3.90;;;;;;;14.41;100.00;97333.71;109897;1272;138664;-91
2023/09/06 00:04:15;;;;;;;5.80;3.90;;;;;;;14.41;100.00;97334.84;110080;1279;22331;-91
2023/09/06 00:06:42;;;;;;;4.30;3.90;;;;;;;14.40;100.00;97333.86;110025;1279;22371;-92
2023/09/06 00:09:10;;;;;;;4.10;3.70;;;;;;;14.40;100.00;97330.79;109945;1277;137598;-91
2023/09/06 00:11:36;;;;;;;5.10;3.80;;;;;;;14.38;100.00;97334.45;110052;1277;22501;-91
2023/09/06 00:14:03;;;;;;;5.70;3.50;;;;;;;14.37;100.00;97333.38;109929;1276;138996;-91
2023/09/06 00:16:29;;;;;;;4.90;3.70;;;;;;;14.36;100.00;97330.31;110013;1272;22294;-91
2023/09/06 00:18:59;;;;;;;5.10;3.70;;;;;;;14.36;100.00;97330.52;109935;1272;139031;-91
2023/09/06 00:21:26;;;;;;;4.30;3.70;;;;;;;14.36;100.00;97331.40;109990;1277;22342;-91
2023/09/06 00:23:54;;;;;;;5.70;3.70;;;;;;;14.36;100.00;97334.34;110096;1271;22159;-91
2023/09/06 00:26:21;;;;;;;7.10;3.70;;;;;;;14.35;100.00;97337.14;109968;1271;138673;-91
2023/09/06 00:28:49;;;;;;;6.90;4.20;;;;;;;14.33;100.00;97339.09;110139;1279;22235;-91
2023/09/06 00:31:17;;;;;;;4.70;3.30;;;;;;;14.31;100.00;97335.73;109886;1272;139329;-91
2023/09/06 00:33:44;;;;;;;4.40;3.80;;;;;;;14.30;100.00;97331.82;109993;1280;23179;-91
2023/09/06 00:36:10;;;;;;;5.30;3.60;;;;;;;14.30;100.00;97334.27;110047;1279;22153;-91
2023/09/06 00:38:38;;;;;;;5.10;4.00;;;;;;;14.29;100.00;97332.09;109889;1271;138941;-91
2023/09/06 00:41:06;;;;;;;5.60;3.80;;;;;;;14.27;100.00;97328.98;109990;1279;22238;-92
2023/09/06 00:43:32;;;;;;;5.90;3.20;;;;;;;14.27;100.00;97336.17;109905;1277;139313;-92
2023/09/06 00:46:03;;;;;;;4.10;3.40;;;;;;;14.25;100.00;97336.91;110033;1279;22333;-91
2023/09/06 00:48:30;;;;;;;6.20;3.80;;;;;;;14.25;100.00;97339.54;110115;1279;22972;-92
2023/09/06 00:50:58;;;;;;;5.10;3.60;;;;;;;14.24;100.00;97339.11;109889;1280;139717;-92
2023/09/06 00:53:25;;;;;;;6.00;3.90;;;;;;;14.23;100.00;97337.02;110029;1279;22449;-92
2023/09/06 00:55:52;;;;;;;4.30;3.70;;;;;;;14.21;100.00;97338.23;109930;1271;138642;-91
2023/09/06 00:58:21;;;;;;;4.10;3.40;;;;;;;14.20;100.00;97339.47;110021;1277;22319;-91
2023/09/06 01:00:49;;;;;;;6.60;3.80;;;;;;;14.18;100.00;97335.74;110012;1279;22212;-91
2023/09/06 01:03:15;;;;;;;5.40;4.20;;;;;;;14.18;100.00;97335.71;109967;1274;138329;-91
2023/09/06 01:05:44;;;;;;;3.90;3.40;;;;;;;14.17;100.00;97333.89;110058;1277;22158;-91
2023/09/06 01:08:13;;;;;;;4.40;3.50;;;;;;;14.17;100.00;97335.33;109964;1279;138557;-91
2023/09/06 01:10:39;;;;;;;6.00;3.80;;;;;;;14.14;100.00;97335.02;110061;1272;22413;-91
2023/09/06 01:13:05;;;;;;;5.00;3.90;;;;;;;14.13;100.00;97337.08;109990;1279;139540;-91
2023/09/06 01:15:33;;;;;;;4.20;3.30;;;;;;;14.11;100.00;97337.16;110014;1280;22250;-91
2023/09/06 01:18:02;;;;;;;6.40;3.90;;;;;;;14.09;100.00;97340.69;110174;1272;22196;-91
2023/09/06 01:20:38;;;;;;;4.60;3.90;;;;;;;14.08;100.00;97345.05;109944;1280;138633;-91
2023/09/06 01:23:30;;;;;;;4.10;3.50;;;;;;;14.06;100.00;97341.38;110105;1280;22405;-91
2023/09/06 01:25:57;;;;;;;4.00;3.60;;;;;;;14.06;100.00;97345.75;110002;1274;137819;-92
2023/09/06 01:28:27;;;;;;;4.60;3.40;;;;;;;14.05;100.00;97342.60;109972;1279;22359;-92
2023/09/06 01:30:54;;;;;;;4.20;3.40;;;;;;;14.04;100.00;97346.73;109951;1276;139794;-91
2023/09/06 01:33:22;;;;;;;4.70;3.50;;;;;;;14.02;100.00;97350.93;109975;1276;22417;-92
2023/09/06 01:35:49;;;;;;;5.30;3.50;;;;;;;14.01;100.00;97349.59;110113;1273;22341;-91
2023/09/06 01:38:17;;;;;;;5.00;3.80;;;;;;;14.00;100.00;97352.06;109920;1280;137744;-91
2023/09/06 01:40:43;;;;;;;5.30;3.50;;;;;;;13.99;100.00;97346.46;109923;1279;22461;-91
2023/09/06 01:43:11;;;;;;;4.90;3.80;;;;;;;14.01;100.00;97347.98;109912;1279;139130;-91
2023/09/06 01:45:38;;;;;;;5.40;3.50;;;;;;;14.00;100.00;97339.89;110053;1278;22329;-92
2023/09/06 01:48:05;;;;;;;6.00;3.70;;;;;;;13.97;100.00;97335.69;110084;1273;22367;-91
2023/09/06 01:50:31;;;;;;;4.30;3.50;;;;;;;13.97;100.00;97333.79;109900;1280;138801;-91
2023/09/06 01:52:58;;;;;;;4.70;3.80;;;;;;;13.95;100.00;97332.77;110114;1276;22340;-92
2023/09/06 01:55:28;;;;;;;5.90;3.70;;;;;;;13.94;100.00;97331.95;109910;1276;138774;-91
2023/09/06 01:57:54;;;;;;;4.10;3.50;;;;;;;13.92;100.00;97333.36;109981;1280;22358;-92
2023/09/06 02:00:28;;;;;;;4.50;3.90;;;;;;;13.89;100.00;97335.42;110056;1272;22343;-91
2023/09/06 02:02:55;;;;;;;4.80;3.70;;;;;;;13.87;100.00;97331.38;109957;1277;138739;-92
2023/09/06 02:05:22;;;;;;;4.70;4.20;;;;;;;13.84;100.00;97331.14;109969;1279;22200;-91
2023/09/06 02:07:51;;;;;;;6.90;3.80;;;;;;;13.82;100.00;97333.98;109902;1272;138901;-91
2023/09/06 02:10:17;;;;;;;5.20;4.00;;;;;;;13.80;100.00;97332.30;110046;1279;22890;-91
2023/09/06 02:12:44;;;;;;;4.20;3.80;;;;;;;13.78;100.00;97332.13;110066;1277;22425;-91
2023/09/06 02:15:14;;;;;;;6.70;3.80;;;;;;;13.77;100.00;97332.30;109950;1280;138553;-92
2023/09/06 02:17:43;;;;;;;5.80;3.90;;;;;;;13.75;100.00;97333.33;110028;1271;22337;-92
2023/09/06 02:20:17;;;;;;;4.70;3.80;;;;;;;13.73;100.00;97334.83;109887;1277;138896;-91
2023/09/06 02:22:44;;;;;;;5.00;4.00;;;;;;;13.72;100.00;97334.92;110056;1273;22373;-90
2023/09/06 02:25:12;;;;;;;5.10;3.70;;;;;;;13.70;100.00;97332.45;109977;1279;139202;-92
2023/09/06 02:27:40;;;;;;;4.20;3.80;;;;;;;13.67;100.00;97330.64;110092;1276;22201;-92
2023/09/06 02:30:07;;;;;;;5.60;3.80;;;;;;;13.69;100.00;97332.00;110013;1280;22243;-90
2023/09/06 02:32:34;;;;;;;4.30;3.60;;;;;;;13.70;100.00;97333.95;109920;1279;138662;-91
2023/09/06 02:35:00;;;;;;;4.50;3.60;;;;;;;13.70;100.00;97333.06;110063;1279;22193;-91
2023/09/06 02:37:26;;;;;;;5.20;3.50;;;;;;;13.70;100.00;97328.83;109953;1279;138808;-91
2023/09/06 02:39:55;;;;;;;4.50;3.80;;;;;;;13.69;100.00;97329.39;110077;1276;22178;-92
2023/09/06 02:42:21;;;;;;;6.00;4.10;;;;;;;13.68;100.00;97331.06;110062;1279;22888;-91
2023/09/06 02:44:48;;;;;;;5.30;3.40;;;;;;;13.67;100.00;97331.75;109906;1279;138790;-92
2023/09/06 02:47:17;;;;;;;5.40;3.80;;;;;;;13.66;100.00;97332.53;110014;1279;22969;-91
2023/09/06 02:49:45;;;;;;;5.00;3.80;;;;;;;13.65;100.00;97333.39;109907;1279;138398;-91
2023/09/06 02:52:20;;;;;;;4.60;4.20;;;;;;;13.63;100.00;97338.23;110079;1277;22630;-91
2023/09/06 02:54:47;;;;;;;5.00;3.50;;;;;;;13.62;100.00;97341.06;110088;1277;22406;-91
2023/09/06 02:57:16;;;;;;;8.30;3.80;;;;;;;13.60;100.00;97340.56;110067;1279;138454;-92
2023/09/06 02:59:43;;;;;;;4.90;3.50;;;;;;;13.59;100.00;97338.35;110037;1281;22300;-91
2023/09/06 03:02:12;;;;;;;5.80;3.20;;;;;;;13.59;100.00;97337.38;109991;1277;138785;-92
2023/09/06 03:04:40;;;;;;;5.30;4.00;;;;;;;13.58;100.00;97334.32;110031;1280;22248;-91
2023/09/06 03:07:09;;;;;;;4.20;3.80;;;;;;;13.57;100.00;97335.66;109896;1276;137687;-91
2023/09/06 03:09:38;;;;;;;5.70;4.00;;;;;;;13.56;100.00;97334.00;109989;1281;22273;-91
2023/09/06 03:12:14;;;;;;;4.80;3.80;;;;;;;13.54;100.00;97333.64;110082;1276;22851;-91
2023/09/06 03:14:44;;;;;;;4.20;3.60;;;;;;;13.51;100.00;97333.08;109935;1278;138494;-91
2023/09/06 03:17:11;;;;;;;4.90;3.80;;;;;;;13.49;100.00;97335.10;110131;1272;22697;-91
2023/09/06 03:19:41;;;;;;;5.70;3.80;;;;;;;13.47;100.00;97331.52;109945;1276;139878;-92
2023/09/06 03:22:09;;;;;;;4.30;3.80;;;;;;;13.46;100.00;97330.42;109974;1277;23254;-91
2023/09/06 03:24:42;;;;;;;5.00;3.90;;;;;;;13.46;100.00;97327.73;110031;1273;23089;-91
2023/09/06 03:27:15;;;;;;;8.60;4.20;;;;;;;13.44;100.00;97326.86;109997;1272;138419;-91
2023/09/06 03:29:41;;;;;;;3.60;3.20;;;;;;;13.43;100.00;97323.83;109954;1279;22184;-91
2023/09/06 03:32:08;;;;;;;4.60;3.80;;;;;;;13.42;100.00;97326.02;109892;1279;139368;-91
2023/09/06 03:34:35;;;;;;;4.50;3.50;;;;;;;13.40;100.00;97320.54;110081;1275;22206;-92
2023/09/06 03:37:05;;;;;;;3.80;3.40;;;;;;;13.38;100.00;97320.98;109996;1272;139210;-92
2023/09/06 03:39:37;;;;;;;4.90;4.10;;;;;;;13.37;100.00;97320.45;110104;1279;22659;-92
2023/09/06 03:42:08;;;;;;;5.20;3.60;;;;;;;13.36;100.00;97318.27;110073;1276;22467;-92
2023/09/06 03:44:38;;;;;;;4.80;3.90;;;;;;;13.36;100.00;97315.69;110098;1273;138223;-91
2023/09/06 03:47:13;;;;;;;5.10;3.30;;;;;;;13.36;100.00;97313.59;110129;1275;22249;-91
2023/09/06 03:49:40;;;;;;;4.80;4.00;;;;;;;13.36;100.00;97313.24;109938;1279;138827;-90
2023/09/06 03:52:10;;;;;;;4.80;3.50;;;;;;;13.35;100.00;97311.98;110036;1277;22220;-91
2023/09/06 03:54:38;;;;;;;4.50;3.90;;;;;;;13.35;100.00;97308.44;110025;1277;22818;-91
2023/09/06 03:57:04;;;;;;;6.00;4.50;;;;;;;13.35;100.00;97306.36;110009;1276;138596;-92
2023/09/06 03:59:35;;;;;;;4.20;3.80;;;;;;;13.35;100.00;97307.28;110038;1276;22215;-92
2023/09/06 04:02:10;;;;;;;4.50;3.90;;;;;;;13.34;100.00;97306.83;110033;1279;138372;-91
2023/09/06 04:04:37;;;;;;;5.30;3.90;;;;;;;13.34;100.00;97309.81;110042;1273;22306;-91
2023/09/06 04:07:06;;;;;;;4.30;3.40;;;;;;;13.34;100.00;97310.52;109879;1279;138810;-92
2023/09/06 04:09:37;;;;;;;4.00;3.50;;;;;;;13.33;100.00;97312.83;110072;1273;23069;-91
2023/09/06 04:12:05;;;;;;;4.70;4.10;;;;;;;13.34;100.00;97312.63;110070;1279;22278;-92
2023/09/06 04:14:35;;;;;;;4.50;3.40;;;;;;;13.35;100.00;97315.60;109989;1279;137276;-92
2023/09/06 04:17:06;;;;;;;6.40;3.40;;;;;;;13.36;100.00;97310.92;109974;1276;22368;-92
2023/09/06 04:19:33;;;;;;;4.50;3.40;;;;;;;13.38;100.00;97309.33;109884;1279;138684;-91
2023/09/06 04:22:01;;;;;;;4.80;3.70;;;;;;;13.39;100.00;97309.06;110053;1274;22403;-92
2023/09/06 04:24:28;;;;;;;4.30;3.70;;;;;;;13.39;100.00;97309.20;110010;1277;22250;-92
2023/09/06 04:26:55;;;;;;;5.00;3.80;;;;;;;13.41;100.00;97315.24;110019;1278;137253;-90
2023/09/06 04:29:24;;;;;;;4.30;3.90;;;;;;;13.43;100.00;97319.68;110031;1279;22430;-91
2023/09/06 04:31:50;;;;;;;4.40;3.90;;;;;;;13.45;100.00;97318.04;109965;1279;138555;-91
2023/09/06 04:34:17;;;;;;;4.30;3.90;;;;;;;13.48;100.00;97319.30;110049;1276;22940;-92
2023/09/06 04:36:43;;;;;;;4.10;3.70;;;;;;;13.50;100.00;97320.65;110059;1280;22235;-92
2023/09/06 04:39:09;;;;;;;4.70;4.10;;;;;;;13.52;100.00;97322.00;109922;1277;139034;-91
2023/09/06 04:41:36;;;;;;;4.40;4.00;;;;;;;13.53;100.00;97319.94;110035;1279;22147;-91
2023/09/06 04:44:04;;;;;;;4.30;3.90;;;;;;;13.55;100.00;97316.43;109906;1272;138807;-91
2023/09/06 04:46:30;;;;;;;4.70;3.90;;;;;;;13.57;100.00;97317.63;110042;1274;22388;-91
2023/09/06 04:48:56;;;;;;;4.30;3.90;;;;;;;13.58;100.00;97317.11;109911;1278;139202;-91
2023/09/06 04:51:24;;;;;;;4.50;4.00;;;;;;;13.58;100.00;97320.05;110069;1274;22329;-92
2023/09/06 04:53:52;;;;;;;9.10;4.70;;;;;;;13.60;100.00;97323.20;110078;1273;22969;-91
2023/09/06 04:56:19;;;;;;;4.40;3.80;;;;;;;13.60;100.00;97321.08;109928;1276;138519;-91
2023/09/06 04:58:45;;;;;;;5.00;4.40;;;;;;;13.60;100.00;97320.00;109991;1276;22187;-92
2023/09/06 05:01:12;;;;;;;4.70;4.30;;;;;;;13.61;100.00;97314.34;109936;1273;138875;-92
2023/09/06 05:03:40;;;;;;;5.30;4.40;;;;;;;13.61;100.00;97314.83;110000;1276;22212;-91
2023/09/06 05:06:06;;;;;;;5.10;4.00;;;;;;;13.62;100.00;97316.45;110007;1271;22346;-91
2023/09/06 05:08:32;;;;;;;4.30;3.90;;;;;;;13.63;100.00;97318.83;109910;1279;138775;-91
2023/09/06 05:10:59;;;;;;;5.90;4.40;;;;;;;13.63;100.00;97316.57;110052;1273;22198;-92
2023/09/06 05:13:26;;;;;;;4.10;3.60;;;;;;;13.63;100.00;97321.08;109987;1271;138929;-92
2023/09/06 05:15:52;;;;;;;6.80;3.90;;;;;;;13.64;100.00;97323.34;109976;1278;22343;-91
2023/09/06 05:18:18;;;;;;;4.80;4.00;;;;;;;13.65;100.00;97323.55;110015;1276;22370;-91
2023/09/06 05:20:45;;;;;;;4.90;4.30;;;;;;;13.67;100.00;97329.31;109948;1274;138538;-91
2023/09/06 05:23:14;;;;;;;4.80;4.30;;;;;;;13.68;100.00;97336.20;110014;1276;22209;-92
2023/09/06 05:25:41;;;;;;;6.50;4.90;;;;;;;13.69;100.00;97338.63;109923;1280;137228;-92
2023/09/06 05:28:09;;;;;;;5.20;4.60;;;;;;;13.71;100.00;97342.75;110152;1279;22372;-91
2023/09/06 05:30:39;;;;;;;4.70;4.20;;;;;;;13.72;100.00;97344.33;110133;1279;22656;-92
2023/09/06 05:33:07;;;;;;;6.50;4.20;;;;;;;13.74;100.00;97347.77;109974;1279;138543;-91
2023/09/06 05:35:34;;;;;;;5.70;4.30;;;;;;;13.75;100.00;97351.52;110032;1272;22313;-92
2023/09/06 05:38:03;;;;;;;4.70;3.90;;;;;;;13.76;100.00;97357.45;109928;1276;138397;-92
2023/09/06 05:40:32;;;;;;;5.10;4.10;;;;;;;13.78;100.00;97363.66;110058;1271;22276;-91
2023/09/06 05:42:58;;;;;;;5.40;4.40;;;;;;;13.80;100.00;97367.14;109874;1280;139251;-90
2023/09/06 05:45:26;;;;;;;4.60;4.20;;;;;;;13.81;100.00;97365.27;110028;1279;22465;-91
2023/09/06 05:47:53;;;;;;;5.00;4.50;;;;;;;13.82;100.00;97367.52;110067;1280;22256;-91
2023/09/06 05:52:00;;;;;;;4.90;3.80;;;;;;;13.87;100.00;97372.21;105663;1302;545232;-90
2023/09/06 05:54:51;;;;;;;5.60;4.10;;;;;;;13.88;100.00;97379.85;108476;1280;22535;-90
2023/09/06 05:57:33;;;;;;;4.70;4.00;;;;;;;13.88;100.00;97384.48;108452;1272;22690;-90
2023/09/06 06:00:02;;;;;;;5.60;4.00;;;;;;;13.87;100.00;97380.05;108339;1276;25279;-91
2023/09/06 06:02:30;;;;;;;4.50;4.10;;;;;;;13.89;100.00;97380.55;108026;1281;136907;-90
2023/09/06 06:04:58;;;;;;;5.30;4.50;;;;;;;13.91;100.00;97378.33;107983;1279;301706;-91
2023/09/06 06:07:39;;;;;;;4.90;4.10;;;;;;;13.93;100.00;97382.14;108204;1281;138470;-90
2023/09/06 06:10:18;;;;;;;4.90;4.10;;;;;;;13.94;100.00;97382.20;108244;1281;22554;-91
2023/09/06 06:12:51;;;;;;;6.00;5.00;;;;;;;13.95;100.00;97384.86;108383;1272;22888;-91
2023/09/06 06:15:34;;;;;;;5.70;4.70;;;;;;;13.97;100.00;97381.73;108249;1267;22543;-91
2023/09/06 06:18:05;;;;;;;6.30;4.80;;;;;;;14.00;100.00;97386.06;108282;1271;22648;-90
2023/09/06 06:20:33;;;;;;;5.60;5.00;;;;;;;14.02;100.00;97385.45;108222;1281;137482;-91
2023/09/06 06:23:06;;;;;;;5.90;5.30;;;;;;;14.04;100.00;97387.70;108315;1280;22491;-91
2023/09/06 06:25:41;;;;;;;8.40;6.00;;;;;;;14.06;100.00;97388.29;108198;1273;137831;-91
2023/09/06 06:28:09;;;;;;;6.50;5.10;;;;;;;14.08;100.00;97386.70;108228;1281;25253;-91
2023/09/06 06:30:42;;;;;;;6.70;6.00;;;;;;;14.10;100.00;97387.33;108401;1276;22562;-91
2023/09/06 06:33:09;;;;;;;7.30;5.50;;;;;;;14.13;100.00;97381.41;107990;1275;139115;-90
2023/09/06 06:35:36;;;;;;;6.00;5.40;;;;;;;14.15;100.00;97384.98;108137;1278;23201;-91
2023/09/06 06:38:03;;;;;;;6.70;5.10;;;;;;;14.17;100.00;97387.86;108172;1272;138104;-91
2023/09/06 06:50:09;;;;;;;7.30;5.60;;;;;;;14.28;100.00;97390.61;105167;1307;558044;-91
2023/09/06 06:52:36;;;;;;;6.10;5.40;;;;;;;14.29;100.00;97384.83;107516;1289;22578;-91
2023/09/06 06:55:05;;;;;;;8.20;5.70;;;;;;;14.33;100.00;97381.31;107772;1289;22634;-90
2023/09/06 06:57:35;;;;;;;7.60;5.90;;;;;;;14.35;100.00;97379.95;107538;1285;137252;-91
2023/09/06 07:00:06;;;;;;;6.50;5.90;;;;;;;14.39;100.00;97382.80;107758;1284;22577;-90
2023/09/06 07:02:32;;;;;;;8.00;6.00;;;;;;;14.42;100.00;97382.61;107184;1276;1582586;-90
2023/09/06 07:04:58;;;;;;;7.60;6.40;;;;;;;14.47;100.00;97384.77;108836;1273;26469;-90
2023/09/06 07:07:32;;;;;;;9.00;6.70;;;;;;;14.51;100.00;97385.80;108771;1275;136526;-90
2023/09/06 07:10:00;;;;;;;7.40;6.60;;;;;;;14.55;100.00;97384.31;108732;1276;23506;-90
2023/09/06 07:12:40;;;;;;;7.90;6.90;;;;;;;14.59;100.00;97384.16;108673;1275;25272;-90
2023/09/06 07:15:10;;;;;;;9.00;6.40;;;;;;;14.63;100.00;97382.58;108580;1267;138484;-90
2023/09/06 07:17:36;;;;;;;9.40;7.00;;;;;;;14.69;100.00;97388.57;108580;1275;25405;-90
2023/09/06 07:20:13;;;;;;;7.40;6.70;;;;;;;14.74;100.00;97387.64;108419;1275;137641;-90
2023/09/06 07:22:39;;;;;;;6.70;6.00;;;;;;;14.78;100.00;97385.67;108600;1274;22493;-90
2023/09/06 07:25:08;;;;;;;7.70;5.70;;;;;;;14.84;100.00;97389.59;108453;1273;22583;-90
2023/09/06 07:27:34;;;;;;;7.00;6.40;;;;;;;14.89;100.00;97384.44;108557;1275;137666;-89
2023/09/06 07:30:01;;;;;;;6.80;5.80;;;;;;;14.93;100.00;97383.04;108593;1270;22575;-90
2023/09/06 07:32:27;;;;;;;6.50;5.40;;;;;;;14.97;100.00;97380.62;108728;1276;137802;-90
2023/09/06 07:34:55;;;;;;;5.70;5.10;;;;;;;15.01;100.00;97382.61;108476;1275;23084;-90
2023/09/06 07:37:21;;;;;;;6.00;5.40;;;;;;;15.05;100.00;97382.33;108664;1274;138293;-90
2023/09/06 07:39:48;;;;;;;6.30;5.10;;;;;;;15.09;100.00;97383.92;108636;1275;24324;-90
2023/09/06 07:42:15;;;;;;;7.40;5.00;;;;;;;15.12;100.00;97386.14;108700;1276;24228;-90
2023/09/06 07:44:41;;;;;;;6.50;5.80;;;;;;;15.16;100.00;97385.66;108665;1274;137043;-90
2023/09/06 07:47:10;;;;;;;7.20;5.80;;;;;;;15.19;100.00;97382.83;108560;1276;22567;-90
2023/09/06 07:49:37;;;;;;;6.80;5.00;;;;;;;15.25;100.00;97379.98;108731;1275;138683;-91
2023/09/06 07:52:04;;;;;;;9.10;6.30;;;;;;;15.32;100.00;97381.31;108708;1267;22691;-91
2023/09/06 07:54:32;;;;;;;6.50;5.60;;;;;;;15.38;100.00;97381.20;108851;1274;24202;-90
2023/09/06 07:56:59;;;;;;;6.90;5.80;;;;;;;15.45;100.00;97382.80;108752;1275;137926;-90
2023/09/06 07:59:26;;;;;;;8.10;6.30;;;;;;;15.50;100.00;97384.34;108607;1276;22618;-90
2023/09/06 08:02:02;;;;;;;7.50;6.40;;;;;;;15.52;100.00;97382.23;108561;1270;137881;-89
2023/09/06 08:04:29;;;;;;;6.80;5.80;;;;;;;15.58;100.00;97387.80;108561;1275;22539;-90
2023/09/06 08:06:58;;;;;;;6.50;5.90;;;;;;;15.65;100.00;97385.23;108806;1275;22566;-89
2023/09/06 08:09:25;;;;;;;6.60;5.70;;;;;;;15.73;100.00;97388.99;108515;1275;137600;-90
2023/09/06 08:11:53;;;;;;;7.00;6.30;;;;;;;15.79;100.00;97390.13;108804;1275;22630;-90
2023/09/06 08:14:20;;;;;;;9.60;6.50;;;;;;;15.84;100.00;97391.42;108583;1275;137631;-90
2023/09/06 08:16:46;;;;;;;8.30;6.30;;;;;;;15.91;100.00;97393.00;108457;1276;22556;-90
2023/09/06 08:19:13;;;;;;;6.90;5.70;;;;;;;15.99;100.00;97391.54;108514;1273;22495;-91
2023/09/06 08:21:42;;;;;;;7.90;6.50;;;;;;;16.06;100.00;97392.42;108257;1276;137442;-90
2023/09/06 08:24:09;;;;;;;7.60;6.10;;;;;;;16.11;100.00;97394.39;108643;1273;22535;-91
2023/09/06 08:26:50;;;;;;;7.10;6.40;;;;;;;16.19;100.00;97395.66;108376;1276;137903;-90
2023/09/06 08:29:16;;;;;;;10.40;7.90;;;;;;;16.27;100.00;97397.31;108693;1278;24644;-90
2023/09/06 08:31:44;;;;;;;6.90;6.10;;;;;;;16.33;100.00;97396.19;108265;1277;138228;-91
2023/09/06 08:34:11;;;;;;;8.60;7.10;;;;;;;16.39;100.00;97396.78;108354;1278;25412;-90
2023/09/06 08:36:43;;;;;;;7.50;6.40;;;;;;;16.43;100.00;97393.11;108377;1276;23929;-90
2023/09/06 08:39:09;;;;;;;8.30;7.30;;;;;;;16.47;100.00;97395.39;108227;1276;137745;-90
2023/09/06 08:41:37;;;;;;;9.60;7.80;;;;;;;16.53;100.00;97395.65;108349;1276;22951;-91
2023/09/06 08:44:06;;;;;;;8.10;6.90;;;;;;;16.60;100.00;97396.93;108161;1278;137916;-90
2023/09/06 08:46:44;;;;;;;8.50;6.50;;;;;;;16.70;100.00;97397.77;108419;1277;22565;-90
2023/09/06 08:49:10;;;;;;;8.90;7.40;;;;;;;16.75;100.00;97396.38;108419;1272;22498;-90
2023/09/06 08:51:36;;;;;;;10.70;7.10;;;;;;;16.80;100.00;97398.80;108316;1276;137848;-91
2023/09/06 08:54:05;;;;;;;10.10;7.20;;;;;;;16.87;100.00;97396.83;108637;1273;22649;-91
2023/09/06 08:56:43;;;;;;;8.10;7.30;;;;;;;16.92;100.00;97396.85;108367;1276;138323;-90
